createdAt,value
2022-09-05T00:04:24.961Z,82.25
2022-09-05T00:09:40.077Z,81.32
2022-09-05T00:15:18.450Z,81.49
2022-09-05T00:24:32.906Z,81.57
2022-09-05T00:26:14.792Z,82.96
2022-09-05T00:31:55.941Z,82.00
2022-09-05T00:37:18.255Z,78.73
2022-09-05T00:42:49.491Z,80.91
2022-09-05T00:48:20.857Z,78.72
2022-09-05T00:53:52.492Z,76.03
2022-09-05T00:59:23.852Z,78.54
2022-09-05T01:04:55.707Z,81.44
2022-09-05T01:10:27.313Z,84.13
2022-09-05T01:15:58.725Z,84.47
2022-09-05T01:21:30.042Z,81.97
2022-09-05T01:27:01.670Z,79.48
2022-09-05T01:32:33.175Z,81.70
2022-09-05T01:38:04.740Z,82.18
2022-09-05T01:43:36.082Z,82.38
2022-09-05T01:49:07.825Z,83.11
2022-09-05T01:54:39.539Z,82.17
2022-09-05T02:00:10.837Z,80.80
2022-09-05T02:11:13.726Z,79.16
2022-09-05T02:16:45.303Z,81.76
2022-09-05T02:22:16.933Z,82.19
2022-09-05T02:28:04.246Z,79.89
2022-09-05T02:42:22.554Z,85.71
2022-09-05T02:45:11.754Z,85.60
2022-09-05T02:57:33.580Z,87.04
2022-09-05T03:00:58.844Z,86.85
2022-09-05T03:06:34.655Z,86.75
2022-09-05T03:12:27.120Z,86.01
2022-09-05T03:23:05.492Z,85.90
2022-09-05T03:28:37.060Z,86.02
2022-09-05T03:34:08.340Z,85.95
2022-09-05T03:39:39.968Z,85.16
2022-09-05T03:57:05.817Z,86.36
2022-09-05T03:57:23.407Z,84.88
2022-09-05T04:05:51.620Z,85.54
2022-09-05T04:08:24.666Z,85.92
2022-09-05T04:12:49.358Z,87.53
2022-09-05T04:23:53.075Z,85.30
2022-09-05T04:29:24.781Z,86.39
2022-09-05T04:34:56.256Z,85.97
2022-09-05T04:40:32.243Z,84.30
2022-09-05T04:45:59.687Z,81.69
2022-09-05T04:51:31.879Z,83.00
2022-09-05T04:57:14.076Z,83.00
2022-09-05T05:06:19.104Z,83.19
2022-09-05T05:08:07.055Z,83.00
2022-09-05T05:18:02.533Z,82.31
2022-09-05T05:30:14.195Z,75.79
2022-09-05T05:35:48.541Z,73.73
2022-09-05T05:41:19.899Z,70.35
2022-09-05T05:46:51.425Z,67.42
2022-09-05T05:52:25.470Z,65.94
2022-09-05T05:57:57.241Z,64.91
2022-09-05T06:03:29.682Z,61.40
2022-09-05T06:13:06.292Z,60.78
2022-09-05T06:21:58.273Z,60.19
2022-09-05T06:25:36.572Z,59.47
2022-09-05T06:31:29.286Z,61.63
2022-09-05T06:36:40.176Z,59.71
2022-09-05T06:47:43.663Z,60.01
2022-09-05T06:58:44.783Z,63.63
2022-09-05T07:05:05.224Z,62.99
2022-09-05T07:09:48.379Z,63.31
2022-09-05T07:15:20.612Z,65.74
2022-09-05T07:21:16.553Z,65.30
2022-09-05T07:26:51.383Z,64.86
2022-09-05T07:31:55.432Z,63.03
2022-09-05T07:37:27.297Z,61.30
2022-09-05T07:43:09.123Z,59.36
2022-09-05T07:48:34.813Z,59.10
2022-09-05T07:57:08.679Z,58.22
2022-09-05T07:59:33.952Z,54.44
2022-09-05T08:05:06.206Z,54.72
2022-09-05T08:07:47.772Z,54.50
2022-09-05T08:13:24.577Z,56.21
2022-09-05T08:18:21.377Z,55.48
2022-09-05T08:23:52.915Z,54.69
2022-09-05T08:29:24.578Z,54.04
2022-09-05T08:34:55.843Z,54.04
2022-09-05T08:40:27.424Z,53.08
2022-09-05T08:46:40.699Z,50.29
2022-09-05T08:51:31.388Z,51.72
2022-09-05T08:57:03.179Z,51.94
2022-09-05T09:02:46.936Z,50.24
2022-09-05T09:08:06.715Z,49.68
2022-09-05T09:13:38.330Z,50.81
2022-09-05T09:19:09.628Z,50.42
2022-09-05T09:24:41.726Z,49.24
2022-09-05T09:30:13.415Z,50.29
2022-09-05T09:41:16.855Z,51.44
2022-09-05T09:46:48.707Z,52.90
2022-09-05T09:52:20.834Z,51.08
2022-09-05T09:57:51.843Z,51.64
2022-09-05T10:07:36.789Z,52.62
2022-09-05T10:10:48.843Z,52.24
2022-09-05T10:14:49.065Z,53.17
2022-09-05T10:20:09.095Z,52.59
2022-09-05T10:32:56.025Z,54.05
2022-09-05T10:36:40.146Z,51.90
2022-09-05T10:42:12.055Z,52.84
2022-09-05T10:47:43.994Z,52.32
2022-09-05T10:53:15.725Z,52.43
2022-09-05T11:00:58.064Z,52.16
2022-09-05T11:04:18.882Z,51.73
2022-09-05T11:09:56.058Z,51.48
2022-09-05T11:15:24.217Z,51.61
2022-09-05T11:20:55.825Z,50.88
2022-09-05T11:34:07.372Z,50.85
2022-09-05T11:39:52.514Z,50.66
2022-09-05T11:43:00.839Z,51.00
2022-09-05T11:48:32.991Z,51.36
2022-09-05T11:54:05.012Z,51.93
2022-09-05T11:59:36.925Z,51.65
2022-09-05T12:05:48.447Z,51.34
2022-09-05T12:10:47.031Z,51.04
2022-09-05T12:16:12.027Z,51.80
2022-09-05T12:21:43.675Z,51.74
2022-09-05T12:27:42.935Z,51.05
2022-09-05T12:36:01.502Z,50.15
2022-09-05T12:40:56.188Z,50.46
2022-09-05T12:44:38.063Z,49.84
2022-09-05T12:49:23.297Z,49.89
2022-09-05T12:54:57.078Z,50.26
2022-09-05T13:03:04.284Z,50.32
2022-09-05T13:05:58.789Z,49.50
2022-09-05T13:15:02.696Z,48.61
2022-09-05T13:17:02.236Z,48.34
2022-09-05T13:22:34.061Z,47.64
2022-09-05T13:44:34.618Z,45.82
2022-09-05T13:55:36.112Z,45.73
2022-09-05T14:11:18.131Z,42.74
2022-09-05T14:16:53.651Z,42.91
2022-09-05T14:27:51.239Z,42.63
2022-09-05T14:37:36.030Z,41.10
2022-09-05T14:38:54.901Z,43.32
2022-09-05T14:44:27.660Z,44.25
2022-09-05T14:49:59.700Z,44.99
2022-09-05T14:55:31.440Z,44.51
2022-09-05T15:02:44.407Z,43.76
2022-09-05T15:06:35.078Z,43.53
2022-09-05T15:12:22.172Z,43.17
2022-09-05T15:17:38.627Z,43.14
2022-09-05T15:23:16.156Z,43.95
2022-09-05T15:28:42.249Z,44.58
2022-09-05T15:39:43.466Z,44.81
2022-09-05T15:45:15.227Z,44.29
2022-09-05T15:50:47.051Z,44.50
2022-09-05T15:56:18.992Z,44.22
2022-09-05T16:10:48.806Z,44.17
2022-09-05T16:23:12.789Z,44.08
2022-09-05T16:26:25.506Z,46.53
2022-09-05T16:31:51.893Z,47.33
2022-09-05T16:37:23.588Z,47.92
2022-09-05T16:42:55.511Z,48.66
2022-09-05T16:59:30.866Z,49.67
2022-09-05T17:05:05.395Z,50.67
2022-09-05T17:10:34.263Z,52.18
2022-09-05T17:16:05.944Z,52.42
2022-09-05T17:22:32.284Z,52.78
2022-09-05T17:29:50.493Z,54.51
2022-09-05T17:38:14.497Z,55.25
2022-09-05T17:43:46.532Z,55.57
2022-09-05T17:49:20.476Z,55.26
2022-09-05T17:54:50.545Z,56.80
2022-09-05T18:24:42.724Z,60.58
2022-09-05T18:30:14.327Z,59.88
2022-09-05T18:35:50.718Z,61.36
2022-09-05T18:41:19.499Z,61.18
2022-09-05T18:46:51.739Z,61.52
2022-09-05T18:52:24.143Z,62.31
2022-09-05T18:57:58.893Z,62.25
2022-09-05T19:03:28.016Z,62.32
2022-09-05T19:08:59.804Z,62.72
2022-09-05T19:14:31.659Z,63.08
2022-09-05T19:20:12.587Z,63.60
2022-09-05T19:25:35.190Z,62.45
2022-09-05T19:36:47.008Z,63.59
2022-09-05T19:37:04.777Z,65.20
2022-09-05T19:47:30.003Z,66.03
2022-09-05T19:53:13.686Z,66.32
2022-09-05T19:58:45.284Z,65.88
2022-09-05T20:04:17.252Z,67.61
2022-09-05T20:09:48.913Z,67.88
2022-09-05T20:15:20.694Z,67.93
2022-09-05T20:20:52.339Z,66.92
2022-09-05T20:26:24.243Z,67.66
2022-09-05T20:31:56.042Z,69.56
2022-09-05T20:43:08.580Z,67.44
2022-09-05T20:43:26.811Z,69.19
2022-09-05T20:59:32.081Z,68.94
2022-09-05T21:05:06.922Z,69.46
2022-09-05T21:10:33.726Z,71.01
2022-09-05T21:16:05.725Z,73.60
2022-09-05T21:21:37.382Z,73.31
2022-09-05T21:27:09.111Z,73.94
2022-09-05T21:32:41.482Z,72.49
2022-09-05T21:38:12.695Z,74.58
2022-09-05T21:47:38.963Z,72.89
2022-09-05T21:49:16.262Z,73.63
2022-09-05T21:59:17.233Z,73.40
2022-09-05T22:00:19.707Z,75.50
2022-09-05T22:05:51.512Z,77.30
2022-09-05T22:11:23.477Z,77.49
2022-09-05T22:16:55.343Z,77.51
2022-09-05T22:22:27.051Z,78.10
2022-09-05T22:27:58.924Z,79.27
2022-09-05T22:33:30.451Z,75.31
2022-09-05T22:39:02.599Z,77.28
2022-09-05T22:44:34.282Z,79.17
2022-09-05T22:50:06.172Z,80.07
2022-09-05T22:55:37.954Z,77.02
2022-09-05T23:01:09.447Z,77.70
2022-09-05T23:06:41.381Z,78.22
2022-09-05T23:12:13.346Z,78.77
2022-09-05T23:17:45.556Z,78.64
2022-09-05T23:23:17.263Z,78.17
2022-09-05T23:28:49.102Z,78.54
2022-09-05T23:34:20.775Z,81.94
2022-09-05T23:39:52.590Z,82.30
2022-09-05T23:50:54.221Z,80.82
2022-09-05T23:56:26.229Z,81.50
